RLTS3 YMES-YMES
Flight info
| Callsign | RLTS3 |
|---|---|
| Flight time | 1h 2m |
| Altitude | 20000 |
| Route | ESL DCT WSL DCT ESL |
| Aircraft | PC21/L-SDFGTUVY/C |
Departure
| Time | 2026-05-01 10:33 |
|---|---|
| Airport | RAAF Base East Sale (YMES) |
Arrival
| Time | 2026-05-01 11:35 |
|---|---|
| Airport | RAAF Base East Sale (YMES) |
| Time | Latitude | Longitude | Altitude | Speed | Heading |
|---|---|---|---|---|---|
| 2026-05-01 10:19 | -38.09905 | 147.13631 | 26 ft | 0 kts | 188° |
| 2026-05-01 10:27 | -38.09923 | 147.13600 | 26 ft | 2 kts | 280° |
| 2026-05-01 10:28 | -38.09917 | 147.13570 | 26 ft | 2 kts | 318° |
| 2026-05-01 10:28 | -38.09864 | 147.13526 | 27 ft | 12 kts | 276° |
| 2026-05-01 10:28 | -38.09819 | 147.13469 | 26 ft | 13 kts | 4° |
| 2026-05-01 10:29 | -38.09745 | 147.13217 | 22 ft | 12 kts | 278° |
| 2026-05-01 10:29 | -38.09730 | 147.13099 | 21 ft | 15 kts | 278° |
| 2026-05-01 10:30 | -38.09702 | 147.12867 | 21 ft | 7 kts | 281° |
| 2026-05-01 10:30 | -38.09686 | 147.12835 | 23 ft | 0 kts | 325° |
| 2026-05-01 10:31 | -38.09584 | 147.12841 | 23 ft | 9 kts | 32° |
| 2026-05-01 10:32 | -38.09576 | 147.12975 | 23 ft | 1 kts | 98° |
| 2026-05-01 10:32 | -38.09577 | 147.12980 | 23 ft | 0 kts | 98° |
| 2026-05-01 10:32 | -38.09580 | 147.13009 | 23 ft | 24 kts | 97° |
| 2026-05-01 10:33 | -38.09782 | 147.14637 | 122 ft | 141 kts | 99° |
| 2026-05-01 10:33 | -38.10225 | 147.17755 | 926 ft | 202 kts | 98° |
| 2026-05-01 10:34 | -38.10460 | 147.19531 | 1578 ft | 205 kts | 96° |
| 2026-05-01 10:34 | -38.11009 | 147.21213 | 2259 ft | 218 kts | 134° |
| 2026-05-01 10:34 | -38.12492 | 147.21745 | 2632 ft | 240 kts | 189° |
| 2026-05-01 10:35 | -38.14289 | 147.18483 | 3571 ft | 252 kts | 276° |
| 2026-05-01 10:35 | -38.13915 | 147.16265 | 3701 ft | 264 kts | 286° |
| 2026-05-01 10:35 | -38.13428 | 147.13965 | 3757 ft | 276 kts | 287° |
| 2026-05-01 10:35 | -38.12884 | 147.11602 | 3871 ft | 282 kts | 288° |
| 2026-05-01 10:36 | -38.11650 | 147.06732 | 3872 ft | 292 kts | 290° |
| 2026-05-01 10:36 | -38.10983 | 147.04287 | 3891 ft | 293 kts | 291° |
| 2026-05-01 10:36 | -38.10298 | 147.01880 | 3807 ft | 295 kts | 291° |
| 2026-05-01 10:37 | -38.09631 | 146.99413 | 3766 ft | 295 kts | 287° |
| 2026-05-01 10:37 | -38.10527 | 146.94503 | 3241 ft | 312 kts | 225° |
| 2026-05-01 10:37 | -38.12441 | 146.93136 | 2574 ft | 326 kts | 194° |
| 2026-05-01 10:38 | -38.14699 | 146.92614 | 2331 ft | 325 kts | 190° |
| 2026-05-01 10:38 | -38.16320 | 146.91087 | 3102 ft | 294 kts | 254° |
| 2026-05-01 10:38 | -38.15630 | 146.88873 | 2919 ft | 294 kts | 334° |
| 2026-05-01 10:38 | -38.13736 | 146.89482 | 1804 ft | 316 kts | 52° |
| 2026-05-01 10:39 | -38.13029 | 146.92150 | 1102 ft | 324 kts | 77° |
| 2026-05-01 10:39 | -38.12565 | 146.94881 | 1133 ft | 302 kts | 70° |
| 2026-05-01 10:39 | -38.11085 | 146.96048 | 1787 ft | 275 kts | 340° |
| 2026-05-01 10:39 | -38.10565 | 146.93975 | 1485 ft | 297 kts | 236° |
| 2026-05-01 10:40 | -38.12401 | 146.93622 | 1026 ft | 301 kts | 141° |
| 2026-05-01 10:40 | -38.13178 | 146.96037 | 551 ft | 309 kts | 98° |
| 2026-05-01 10:40 | -38.13359 | 146.97443 | 3717 ft | 83 kts | 272° |
| 2026-05-01 10:40 | -38.13400 | 146.97085 | 1277 ft | 230 kts | 94° |
| 2026-05-01 10:41 | -38.13348 | 146.99668 | 737 ft | 289 kts | 62° |
| 2026-05-01 10:41 | -38.11714 | 147.00037 | 1087 ft | 282 kts | 315° |
| 2026-05-01 10:41 | -38.12066 | 146.95757 | 2993 ft | 20 kts | 76° |
| 2026-05-01 10:42 | -38.11959 | 146.96418 | 2380 ft | 46 kts | 255° |
| 2026-05-01 10:42 | -38.12417 | 146.94124 | 681 ft | 301 kts | 272° |
| 2026-05-01 10:42 | -38.11165 | 146.92842 | 1590 ft | 257 kts | 24° |
| 2026-05-01 10:42 | -38.10796 | 146.94898 | 841 ft | 292 kts | 114° |
| 2026-05-01 10:43 | -38.11751 | 146.97162 | 1250 ft | 228 kts | 118° |
| 2026-05-01 10:43 | -38.12814 | 146.98144 | 2465 ft | 200 kts | 130° |
| 2026-05-01 10:43 | -38.13622 | 147.00345 | 693 ft | 305 kts | 89° |
| 2026-05-01 10:43 | -38.12220 | 147.01590 | 1198 ft | 281 kts | 340° |
| 2026-05-01 10:44 | -38.11539 | 146.99438 | 893 ft | 296 kts | 261° |
| 2026-05-01 10:44 | -38.11956 | 146.96814 | 613 ft | 298 kts | 258° |
| 2026-05-01 10:44 | -38.12044 | 146.96362 | 3905 ft | 132 kts | 77° |
| 2026-05-01 10:44 | -38.12191 | 146.95532 | 522 ft | 311 kts | 261° |
| 2026-05-01 10:45 | -38.11524 | 146.93384 | 1366 ft | 266 kts | 346° |
| 2026-05-01 10:45 | -38.10327 | 146.94695 | 1448 ft | 275 kts | 92° |
| 2026-05-01 10:45 | -38.11128 | 146.97023 | 679 ft | 301 kts | 118° |
| 2026-05-01 10:45 | -38.11867 | 146.98605 | 3209 ft | 32 kts | 294° |
| 2026-05-01 10:46 | -38.11716 | 146.98029 | 1904 ft | 136 kts | 112° |
| 2026-05-01 10:46 | -38.12521 | 147.00283 | 610 ft | 296 kts | 114° |
| 2026-05-01 10:46 | -38.13860 | 147.01822 | 1679 ft | 271 kts | 182° |
| 2026-05-01 10:46 | -38.14870 | 147.00096 | 1499 ft | 284 kts | 281° |
| 2026-05-01 10:47 | -38.13810 | 146.97950 | 1156 ft | 288 kts | 310° |
| 2026-05-01 10:47 | -38.12604 | 146.95949 | 1187 ft | 282 kts | 309° |
| 2026-05-01 10:47 | -38.11453 | 146.93949 | 1272 ft | 277 kts | 306° |
| 2026-05-01 10:47 | -38.10427 | 146.91951 | 1720 ft | 272 kts | 286° |
| 2026-05-01 10:48 | -38.11298 | 146.90063 | 1694 ft | 289 kts | 192° |
| 2026-05-01 10:48 | -38.12910 | 146.91220 | 1378 ft | 292 kts | 109° |
| 2026-05-01 10:48 | -38.13289 | 146.93749 | 1438 ft | 287 kts | 92° |
| 2026-05-01 10:48 | -38.13623 | 146.96283 | 1358 ft | 289 kts | 97° |
| 2026-05-01 10:49 | -38.13935 | 146.98774 | 1339 ft | 292 kts | 98° |
| 2026-05-01 10:49 | -38.14238 | 147.01304 | 1328 ft | 288 kts | 97° |
| 2026-05-01 10:49 | -38.14519 | 147.03814 | 1374 ft | 290 kts | 99° |
| 2026-05-01 10:49 | -38.15689 | 147.05706 | 1829 ft | 287 kts | 159° |
| 2026-05-01 10:50 | -38.17553 | 147.05171 | 1983 ft | 294 kts | 227° |
| 2026-05-01 10:50 | -38.18096 | 147.02774 | 2076 ft | 290 kts | 279° |
| 2026-05-01 10:50 | -38.17404 | 147.00356 | 2002 ft | 291 kts | 296° |
| 2026-05-01 10:50 | -38.16563 | 146.98004 | 2025 ft | 292 kts | 296° |
| 2026-05-01 10:51 | -38.15689 | 146.95689 | 2099 ft | 289 kts | 295° |
| 2026-05-01 10:51 | -38.15720 | 146.93263 | 2084 ft | 293 kts | 231° |
| 2026-05-01 10:51 | -38.17531 | 146.92948 | 1935 ft | 293 kts | 140° |
| 2026-05-01 10:51 | -38.17716 | 146.95198 | 1795 ft | 284 kts | 48° |
| 2026-05-01 10:52 | -38.15823 | 146.95970 | 1196 ft | 306 kts | 3° |
| 2026-05-01 10:52 | -38.13677 | 146.96075 | 891 ft | 309 kts | 4° |
| 2026-05-01 10:52 | -38.11558 | 146.96360 | 697 ft | 306 kts | 8° |
| 2026-05-01 10:52 | -38.09459 | 146.96743 | 496 ft | 303 kts | 9° |
| 2026-05-01 10:53 | -38.07662 | 146.97080 | 2156 ft | 77 kts | 3° |
| 2026-05-01 10:53 | -38.08218 | 146.96987 | 3149 ft | 54 kts | 169° |
| 2026-05-01 10:53 | -38.06748 | 146.97535 | 572 ft | 306 kts | 38° |
| 2026-05-01 10:53 | -38.06809 | 146.99754 | 737 ft | 292 kts | 147° |
| 2026-05-01 10:54 | -38.08586 | 146.99188 | 737 ft | 292 kts | 234° |
| 2026-05-01 10:54 | -38.08962 | 146.96730 | 699 ft | 291 kts | 283° |
| 2026-05-01 10:54 | -38.07843 | 146.94689 | 827 ft | 284 kts | 323° |
| 2026-05-01 10:54 | -38.06105 | 146.93719 | 1282 ft | 271 kts | 1° |
| 2026-05-01 10:55 | -38.04804 | 146.95143 | 1362 ft | 278 kts | 88° |
| 2026-05-01 10:55 | -38.06122 | 146.96773 | 931 ft | 300 kts | 171° |
| 2026-05-01 10:55 | -38.08234 | 146.96511 | 613 ft | 308 kts | 189° |
| 2026-05-01 10:55 | -38.10185 | 146.96474 | 1311 ft | 280 kts | 219° |
| 2026-05-01 10:56 | -38.11496 | 146.94557 | 1406 ft | 301 kts | 239° |
| 2026-05-01 10:56 | -38.12618 | 146.92362 | 1773 ft | 294 kts | 236° |
| 2026-05-01 10:56 | -38.14277 | 146.91076 | 1799 ft | 296 kts | 173° |
| 2026-05-01 10:56 | -38.15644 | 146.92762 | 1470 ft | 295 kts | 98° |
| 2026-05-01 10:57 | -38.15050 | 146.95143 | 1149 ft | 295 kts | 45° |
| 2026-05-01 10:57 | -38.13168 | 146.96167 | 846 ft | 302 kts | 9° |
| 2026-05-01 10:57 | -38.11084 | 146.96504 | 666 ft | 302 kts | 8° |
| 2026-05-01 10:57 | -38.09015 | 146.96863 | 513 ft | 300 kts | 8° |
| 2026-05-01 10:58 | -38.07473 | 146.97141 | 2776 ft | 10 kts | 71° |
| 2026-05-01 10:58 | -38.08096 | 146.97128 | 3001 ft | 29 kts | 75° |
| 2026-05-01 10:58 | -38.06457 | 146.97145 | 483 ft | 308 kts | 330° |
| 2026-05-01 10:58 | -38.06247 | 146.94885 | 554 ft | 297 kts | 220° |
| 2026-05-01 10:59 | -38.08091 | 146.95007 | 637 ft | 287 kts | 139° |
| 2026-05-01 10:59 | -38.08710 | 146.97249 | 631 ft | 283 kts | 72° |
| 2026-05-01 10:59 | -38.07571 | 146.99165 | 1192 ft | 259 kts | 56° |
| 2026-05-01 10:59 | -38.07847 | 147.01208 | 1391 ft | 284 kts | 151° |
| 2026-05-01 11:00 | -38.09292 | 147.00030 | 846 ft | 300 kts | 265° |
| 2026-05-01 11:00 | -38.09034 | 146.97371 | 379 ft | 313 kts | 279° |
| 2026-05-01 11:00 | -38.08771 | 146.95175 | 2009 ft | 31 kts | 113° |
| 2026-05-01 11:00 | -38.08876 | 146.96025 | 1461 ft | 139 kts | 283° |
| 2026-05-01 11:01 | -38.07924 | 146.93953 | 701 ft | 303 kts | 351° |
| 2026-05-01 11:01 | -38.06462 | 146.95459 | 820 ft | 296 kts | 77° |
| 2026-05-01 11:01 | -38.06434 | 146.97932 | 813 ft | 279 kts | 91° |
| 2026-05-01 11:01 | -38.06391 | 147.00378 | 881 ft | 279 kts | 84° |
| 2026-05-01 11:02 | -38.06964 | 147.02605 | 996 ft | 282 kts | 146° |
| 2026-05-01 11:02 | -38.08785 | 147.02298 | 1005 ft | 294 kts | 227° |
| 2026-05-01 11:02 | -38.09286 | 147.00715 | 711 ft | 299 kts | 267° |
| 2026-05-01 11:02 | -38.08928 | 146.97177 | 484 ft | 300 kts | 277° |
| 2026-05-01 11:03 | -38.08644 | 146.94658 | 515 ft | 286 kts | 278° |
| 2026-05-01 11:03 | -38.08377 | 146.92238 | 841 ft | 275 kts | 279° |
| 2026-05-01 11:03 | -38.08040 | 146.89937 | 1646 ft | 254 kts | 296° |
| 2026-05-01 11:03 | -38.06577 | 146.89278 | 1685 ft | 265 kts | 36° |
| 2026-05-01 11:04 | -38.06342 | 146.91564 | 893 ft | 299 kts | 114° |
| 2026-05-01 11:04 | -38.07438 | 146.93891 | 536 ft | 308 kts | 121° |
| 2026-05-01 11:04 | -38.08069 | 146.95112 | 3601 ft | 86 kts | 296° |
| 2026-05-01 11:04 | -38.07878 | 146.94515 | 2979 ft | 41 kts | 276° |
| 2026-05-01 11:05 | -38.08693 | 146.97242 | 664 ft | 300 kts | 73° |
| 2026-05-01 11:05 | -38.07895 | 146.98578 | 946 ft | 283 kts | 43° |
| 2026-05-01 11:05 | -38.07513 | 147.01452 | 1183 ft | 290 kts | 136° |
| 2026-05-01 11:05 | -38.09238 | 147.01096 | 857 ft | 301 kts | 245° |
| 2026-05-01 11:06 | -38.09202 | 146.98460 | 401 ft | 308 kts | 280° |
| 2026-05-01 11:06 | -38.08822 | 146.95839 | 407 ft | 298 kts | 281° |
| 2026-05-01 11:06 | -38.08571 | 146.94088 | 564 ft | 293 kts | 280° |
| 2026-05-01 11:07 | -38.06661 | 146.93118 | 1245 ft | 284 kts | 105° |
| 2026-05-01 11:07 | -38.07257 | 146.94679 | 599 ft | 309 kts | 119° |
| 2026-05-01 11:07 | -38.08210 | 146.96614 | 2605 ft | 176 kts | 141° |
| 2026-05-01 11:07 | -38.09340 | 146.97706 | 1543 ft | 265 kts | 122° |
| 2026-05-01 11:08 | -38.10165 | 147.00185 | 695 ft | 311 kts | 80° |
| 2026-05-01 11:08 | -38.08709 | 147.01801 | 1030 ft | 287 kts | 17° |
| 2026-05-01 11:08 | -38.05078 | 147.01591 | 1197 ft | 286 kts | 309° |
| 2026-05-01 11:09 | -38.04787 | 146.99144 | 1048 ft | 296 kts | 251° |
| 2026-05-01 11:09 | -38.06227 | 146.97373 | 669 ft | 308 kts | 201° |
| 2026-05-01 11:09 | -38.08273 | 146.96722 | 933 ft | 242 kts | 192° |
| 2026-05-01 11:10 | -38.09069 | 146.96426 | 432 ft | 322 kts | 191° |
| 2026-05-01 11:10 | -38.10932 | 146.96662 | 2091 ft | 250 kts | 188° |
| 2026-05-01 11:10 | -38.12490 | 146.95747 | 2439 ft | 256 kts | 210° |
| 2026-05-01 11:10 | -38.14209 | 146.95335 | 2773 ft | 261 kts | 212° |
| 2026-05-01 11:11 | -38.15213 | 146.93534 | 3298 ft | 254 kts | 264° |
| 2026-05-01 11:11 | -38.14533 | 146.91533 | 3064 ft | 267 kts | 328° |
| 2026-05-01 11:11 | -38.12702 | 146.91368 | 2644 ft | 285 kts | 24° |
| 2026-05-01 11:11 | -38.11523 | 146.93299 | 2242 ft | 293 kts | 76° |
| 2026-05-01 11:12 | -38.11092 | 146.95609 | 3117 ft | 253 kts | 48° |
| 2026-05-01 11:12 | -38.09625 | 146.95103 | 2475 ft | 287 kts | 304° |
| 2026-05-01 11:12 | -38.08543 | 146.92919 | 2331 ft | 293 kts | 303° |
| 2026-05-01 11:12 | -38.07482 | 146.90714 | 2335 ft | 292 kts | 302° |
| 2026-05-01 11:13 | -38.06354 | 146.88586 | 2439 ft | 289 kts | 311° |
| 2026-05-01 11:13 | -38.04750 | 146.87127 | 2622 ft | 284 kts | 340° |
| 2026-05-01 11:13 | -38.02825 | 146.86960 | 2724 ft | 283 kts | 17° |
| 2026-05-01 11:13 | -38.01420 | 146.88606 | 2551 ft | 295 kts | 69° |
| 2026-05-01 11:14 | -38.01481 | 146.91220 | 2304 ft | 308 kts | 107° |
| 2026-05-01 11:14 | -38.02503 | 146.93664 | 1792 ft | 322 kts | 125° |
| 2026-05-01 11:14 | -38.03961 | 146.95852 | 1379 ft | 327 kts | 134° |
| 2026-05-01 11:14 | -38.05891 | 146.97294 | 967 ft | 329 kts | 169° |
| 2026-05-01 11:15 | -38.08174 | 146.97075 | 473 ft | 329 kts | 190° |
| 2026-05-01 11:15 | -38.08799 | 146.95001 | 445 ft | 306 kts | 280° |
| 2026-05-01 11:15 | -38.08618 | 146.94041 | 3430 ft | 145 kts | 95° |
| 2026-05-01 11:15 | -38.08884 | 146.95699 | 419 ft | 307 kts | 101° |
| 2026-05-01 11:16 | -38.08615 | 146.98017 | 561 ft | 289 kts | 11° |
| 2026-05-01 11:16 | -38.08237 | 146.96396 | 494 ft | 279 kts | 195° |
| 2026-05-01 11:16 | -38.09039 | 146.98082 | 420 ft | 276 kts | 87° |
| 2026-05-01 11:16 | -38.08909 | 147.00536 | 432 ft | 280 kts | 87° |
| 2026-05-01 11:17 | -38.09572 | 147.02730 | 568 ft | 277 kts | 142° |
| 2026-05-01 11:17 | -38.11391 | 147.02791 | 548 ft | 283 kts | 215° |
| 2026-05-01 11:17 | -38.12187 | 147.00616 | 566 ft | 282 kts | 267° |
| 2026-05-01 11:17 | -38.12263 | 146.98130 | 677 ft | 281 kts | 269° |
| 2026-05-01 11:18 | -38.12361 | 146.95729 | 1200 ft | 266 kts | 261° |
| 2026-05-01 11:18 | -38.13149 | 146.93683 | 1862 ft | 259 kts | 227° |
| 2026-05-01 11:18 | -38.14755 | 146.92879 | 2212 ft | 264 kts | 161° |
| 2026-05-01 11:18 | -38.15370 | 146.94848 | 1742 ft | 281 kts | 64° |
| 2026-05-01 11:19 | -38.13711 | 146.96025 | 1076 ft | 298 kts | 9° |
| 2026-05-01 11:19 | -38.11603 | 146.96379 | 511 ft | 309 kts | 7° |
| 2026-05-01 11:19 | -38.09498 | 146.96715 | 456 ft | 301 kts | 7° |
| 2026-05-01 11:19 | -38.07519 | 146.97013 | 1189 ft | 197 kts | 5° |
| 2026-05-01 11:20 | -38.06940 | 146.96715 | 2125 ft | 122 kts | 123° |
| 2026-05-01 11:20 | -38.08001 | 146.98593 | 573 ft | 288 kts | 125° |
| 2026-05-01 11:20 | -38.09524 | 147.00145 | 651 ft | 285 kts | 159° |
| 2026-05-01 11:20 | -38.11470 | 147.00111 | 676 ft | 285 kts | 200° |
| 2026-05-01 11:21 | -38.13241 | 146.98960 | 631 ft | 287 kts | 208° |
| 2026-05-01 11:21 | -38.14989 | 146.97768 | 727 ft | 284 kts | 208° |
| 2026-05-01 11:21 | -38.15583 | 146.95826 | 975 ft | 273 kts | 318° |
| 2026-05-01 11:21 | -38.13770 | 146.95879 | 662 ft | 284 kts | 13° |
| 2026-05-01 11:22 | -38.11791 | 146.96308 | 466 ft | 291 kts | 9° |
| 2026-05-01 11:22 | -38.09795 | 146.96730 | 415 ft | 291 kts | 10° |
| 2026-05-01 11:22 | -38.07826 | 146.97147 | 725 ft | 246 kts | 9° |
| 2026-05-01 11:22 | -38.07476 | 146.96790 | 3656 ft | 91 kts | 284° |
| 2026-05-01 11:23 | -38.07660 | 146.98208 | 569 ft | 296 kts | 112° |
| 2026-05-01 11:23 | -38.08976 | 147.00154 | 569 ft | 294 kts | 138° |
| 2026-05-01 11:23 | -38.10695 | 147.01440 | 686 ft | 289 kts | 173° |
| 2026-05-01 11:23 | -38.12509 | 147.00688 | 799 ft | 288 kts | 223° |
| 2026-05-01 11:24 | -38.13215 | 146.98391 | 791 ft | 288 kts | 273° |
| 2026-05-01 11:24 | -38.12419 | 146.96141 | 845 ft | 284 kts | 317° |
| 2026-05-01 11:24 | -38.08783 | 146.94309 | 804 ft | 285 kts | 350° |
| 2026-05-01 11:25 | -38.06839 | 146.93909 | 949 ft | 281 kts | 352° |
| 2026-05-01 11:25 | -38.03048 | 146.93756 | 1217 ft | 278 kts | 31° |
| 2026-05-01 11:25 | -38.01964 | 146.95731 | 1046 ft | 288 kts | 78° |
| 2026-05-01 11:26 | -38.02579 | 146.98047 | 1142 ft | 286 kts | 142° |
| 2026-05-01 11:26 | -38.06436 | 146.97568 | 867 ft | 300 kts | 191° |
| 2026-05-01 11:26 | -38.08516 | 146.97058 | 580 ft | 305 kts | 193° |
| 2026-05-01 11:27 | -38.08754 | 146.94814 | 759 ft | 284 kts | 279° |
| 2026-05-01 11:27 | -38.08679 | 146.94067 | 3704 ft | 118 kts | 96° |
| 2026-05-01 11:27 | -38.08907 | 146.95529 | 435 ft | 305 kts | 100° |
| 2026-05-01 11:27 | -38.08552 | 146.97760 | 537 ft | 285 kts | 356° |
| 2026-05-01 11:28 | -38.08702 | 146.96327 | 483 ft | 269 kts | 162° |
| 2026-05-01 11:28 | -38.09077 | 146.98465 | 479 ft | 271 kts | 89° |
| 2026-05-01 11:28 | -38.09654 | 147.00603 | 959 ft | 258 kts | 129° |
| 2026-05-01 11:29 | -38.12962 | 146.99993 | 1432 ft | 293 kts | 213° |
| 2026-05-01 11:29 | -38.14254 | 146.97973 | 1335 ft | 305 kts | 275° |
| 2026-05-01 11:29 | -38.12450 | 146.97846 | 2352 ft | 297 kts | 147° |
| 2026-05-01 11:30 | -38.14387 | 146.97320 | 2141 ft | 322 kts | 236° |
| 2026-05-01 11:30 | -38.14276 | 146.94851 | 2122 ft | 262 kts | 313° |
| 2026-05-01 11:30 | -38.12639 | 146.94297 | 2356 ft | 258 kts | 16° |
| 2026-05-01 11:30 | -38.11044 | 146.95448 | 2245 ft | 266 kts | 35° |
| 2026-05-01 11:31 | -38.09554 | 146.96845 | 2273 ft | 267 kts | 37° |
| 2026-05-01 11:31 | -38.08134 | 146.98319 | 2310 ft | 271 kts | 36° |
| 2026-05-01 11:31 | -38.06519 | 146.99605 | 2280 ft | 270 kts | 27° |
| 2026-05-01 11:31 | -38.05010 | 147.01026 | 2272 ft | 277 kts | 54° |
| 2026-05-01 11:32 | -38.04713 | 147.03377 | 2093 ft | 288 kts | 108° |
| 2026-05-01 11:32 | -38.06199 | 147.05095 | 1440 ft | 304 kts | 151° |
| 2026-05-01 11:32 | -38.07900 | 147.06526 | 1284 ft | 293 kts | 137° |
| 2026-05-01 11:32 | -38.09060 | 147.08598 | 890 ft | 291 kts | 105° |
| 2026-05-01 11:33 | -38.09351 | 147.11156 | 410 ft | 294 kts | 97° |
| 2026-05-01 11:33 | -38.09669 | 147.13717 | 212 ft | 287 kts | 99° |
| 2026-05-01 11:33 | -38.09417 | 147.15701 | 771 ft | 229 kts | 345° |
| 2026-05-01 11:33 | -38.08884 | 147.14099 | 821 ft | 192 kts | 282° |
| 2026-05-01 11:34 | -38.08684 | 147.12529 | 911 ft | 160 kts | 281° |
| 2026-05-01 11:34 | -38.08558 | 147.11213 | 895 ft | 152 kts | 262° |
| 2026-05-01 11:34 | -38.09354 | 147.10848 | 586 ft | 147 kts | 125° |
| 2026-05-01 11:34 | -38.09458 | 147.12058 | 209 ft | 133 kts | 94° |
| 2026-05-01 11:35 | -38.09604 | 147.13224 | 22 ft | 128 kts | 99° |
| 2026-05-01 11:35 | -38.09702 | 147.14017 | 25 ft | 61 kts | 99° |
| 2026-05-01 11:35 | -38.09767 | 147.14547 | 21 ft | 51 kts | 99° |
| 2026-05-01 11:35 | -38.09825 | 147.14728 | 18 ft | 13 kts | 167° |
| 2026-05-01 11:36 | -38.09881 | 147.14673 | 18 ft | 10 kts | 238° |
| 2026-05-01 11:36 | -38.09913 | 147.14607 | 20 ft | 7 kts | 256° |
| 2026-05-01 11:36 | -38.09905 | 147.14507 | 22 ft | 15 kts | 279° |
| 2026-05-01 11:36 | -38.09887 | 147.14363 | 23 ft | 16 kts | 278° |
| 2026-05-01 11:37 | -38.09872 | 147.14234 | 24 ft | 21 kts | 279° |
| 2026-05-01 11:37 | -38.09855 | 147.14104 | 27 ft | 12 kts | 279° |
| 2026-05-01 11:37 | -38.09864 | 147.14042 | 29 ft | 8 kts | 197° |
| 2026-05-01 11:37 | -38.09922 | 147.14018 | 27 ft | 7 kts | 250° |
| 2026-05-01 11:38 | -38.09913 | 147.13922 | 28 ft | 12 kts | 278° |
| 2026-05-01 11:38 | -38.09897 | 147.13794 | 26 ft | 16 kts | 278° |
| 2026-05-01 11:38 | -38.09883 | 147.13680 | 26 ft | 8 kts | 278° |
| 2026-05-01 11:38 | -38.09880 | 147.13638 | 26 ft | 2 kts | 233° |
| 2026-05-01 11:39 | -38.09898 | 147.13632 | 30 ft | 1 kts | 189° |
| 2026-05-01 11:39 | -38.09905 | 147.13631 | 26 ft | 0 kts | 189° |